Terminal Aerodrome Forecast
Issued by NWS

Home | Current Version | Previous Version | Text Only | Print | Product List | Glossary On
Versions: 1 2 3 4 5 6 7 8 9 10 11 12 13 14 15 16 17
000
FTUS41 KGYX 292320
TAFAUG
TAF
KAUG 292320Z 3000/3024 VRB05KT P6SM OVC080
     FM300300 24003KT 6SM BR OVC060
     FM300500 27003KT 5SM BR OVC060
     FM300600 VRB03KT 3SM BR OVC001
     FM301100 28002KT 1SM BR BKN035
     FM301200 VRB03KT P6SM SCT100
     FM301800 20005KT P6SM BKN250=

USA.gov is the U.S. government's official web portal to all federal, state and local government web resources and services.